sensor_id;sensor_type;location;lat;lon;timestamp;temperature;humidity
62259;DHT22;48241;48.824;10.102;2022-09-03T00:00:21;17.40;56.60
62259;DHT22;48241;48.824;10.102;2022-09-03T00:05:40;17.60;56.00
62259;DHT22;48241;48.824;10.102;2022-09-03T00:13:26;17.40;56.80
62259;DHT22;48241;48.824;10.102;2022-09-03T00:15:55;17.40;57.00
62259;DHT22;48241;48.824;10.102;2022-09-03T00:18:24;17.50;57.10
62259;DHT22;48241;48.824;10.102;2022-09-03T00:21:04;17.40;57.20
62259;DHT22;48241;48.824;10.102;2022-09-03T00:23:38;17.30;57.40
62259;DHT22;48241;48.824;10.102;2022-09-03T00:26:14;17.10;57.80
62259;DHT22;48241;48.824;10.102;2022-09-03T00:28:46;17.10;58.10
62259;DHT22;48241;48.824;10.102;2022-09-03T00:31:35;16.90;58.60
62259;DHT22;48241;48.824;10.102;2022-09-03T00:34:30;16.70;59.00
62259;DHT22;48241;48.824;10.102;2022-09-03T00:36:55;16.80;59.20
62259;DHT22;48241;48.824;10.102;2022-09-03T00:39:23;16.90;59.40
62259;DHT22;48241;48.824;10.102;2022-09-03T00:53:04;17.00;58.70
62259;DHT22;48241;48.824;10.102;2022-09-03T00:55:51;16.70;59.70
62259;DHT22;48241;48.824;10.102;2022-09-03T01:01:21;16.70;60.10
62259;DHT22;48241;48.824;10.102;2022-09-03T01:04:15;16.70;60.60
62259;DHT22;48241;48.824;10.102;2022-09-03T01:07:04;16.70;60.00
62259;DHT22;48241;48.824;10.102;2022-09-03T01:09:56;16.80;59.70
62259;DHT22;48241;48.824;10.102;2022-09-03T01:12:46;16.70;59.90
62259;DHT22;48241;48.824;10.102;2022-09-03T01:20:38;17.00;59.10
62259;DHT22;48241;48.824;10.102;2022-09-03T01:28:47;17.00;59.90
62259;DHT22;48241;48.824;10.102;2022-09-03T01:34:28;17.00;59.70
62259;DHT22;48241;48.824;10.102;2022-09-03T01:42:56;16.70;61.30
62259;DHT22;48241;48.824;10.102;2022-09-03T01:45:54;16.80;61.50
62259;DHT22;48241;48.824;10.102;2022-09-03T01:48:43;16.50;61.50
62259;DHT22;48241;48.824;10.102;2022-09-03T01:51:20;16.60;61.80
62259;DHT22;48241;48.824;10.102;2022-09-03T01:59:47;16.70;61.90
62259;DHT22;48241;48.824;10.102;2022-09-03T02:02:20;16.50;62.40
62259;DHT22;48241;48.824;10.102;2022-09-03T02:05:15;16.80;61.70
62259;DHT22;48241;48.824;10.102;2022-09-03T02:07:59;16.60;62.10
62259;DHT22;48241;48.824;10.102;2022-09-03T02:10:44;16.70;61.90
62259;DHT22;48241;48.824;10.102;2022-09-03T02:15:42;16.70;61.90
62259;DHT22;48241;48.824;10.102;2022-09-03T02:18:18;16.60;62.00
62259;DHT22;48241;48.824;10.102;2022-09-03T02:20:46;16.50;63.50
62259;DHT22;48241;48.824;10.102;2022-09-03T02:23:13;16.70;62.50
62259;DHT22;48241;48.824;10.102;2022-09-03T02:25:42;16.70;62.00
62259;DHT22;48241;48.824;10.102;2022-09-03T02:28:09;16.80;62.20
62259;DHT22;48241;48.824;10.102;2022-09-03T02:30:35;16.80;62.20
62259;DHT22;48241;48.824;10.102;2022-09-03T02:33:00;16.80;62.10
62259;DHT22;48241;48.824;10.102;2022-09-03T02:35:26;16.80;61.60
62259;DHT22;48241;48.824;10.102;2022-09-03T02:37:52;16.60;63.00
62259;DHT22;48241;48.824;10.102;2022-09-03T02:40:18;16.60;63.30
62259;DHT22;48241;48.824;10.102;2022-09-03T02:42:45;16.60;62.90
62259;DHT22;48241;48.824;10.102;2022-09-03T02:45:27;16.80;62.40
62259;DHT22;48241;48.824;10.102;2022-09-03T02:47:55;16.90;62.20
62259;DHT22;48241;48.824;10.102;2022-09-03T02:50:21;16.80;62.10
62259;DHT22;48241;48.824;10.102;2022-09-03T02:52:47;16.80;63.00
62259;DHT22;48241;48.824;10.102;2022-09-03T02:55:12;16.70;63.50
62259;DHT22;48241;48.824;10.102;2022-09-03T02:57:38;16.60;63.40
62259;DHT22;48241;48.824;10.102;2022-09-03T03:00:04;17.00;62.80
62259;DHT22;48241;48.824;10.102;2022-09-03T03:02:30;17.00;62.20
62259;DHT22;48241;48.824;10.102;2022-09-03T03:04:55;17.00;61.80
62259;DHT22;48241;48.824;10.102;2022-09-03T03:07:21;17.10;61.60
62259;DHT22;48241;48.824;10.102;2022-09-03T03:09:47;17.10;61.70
62259;DHT22;48241;48.824;10.102;2022-09-03T03:12:13;17.30;61.20
62259;DHT22;48241;48.824;10.102;2022-09-03T03:14:41;17.30;61.20
62259;DHT22;48241;48.824;10.102;2022-09-03T03:17:08;17.30;61.30
62259;DHT22;48241;48.824;10.102;2022-09-03T03:19:33;17.50;60.90
62259;DHT22;48241;48.824;10.102;2022-09-03T03:21:59;17.50;61.20
62259;DHT22;48241;48.824;10.102;2022-09-03T03:24:25;17.50;60.30
62259;DHT22;48241;48.824;10.102;2022-09-03T03:26:53;17.50;60.90
62259;DHT22;48241;48.824;10.102;2022-09-03T03:29:19;17.20;61.70
62259;DHT22;48241;48.824;10.102;2022-09-03T03:31:45;17.30;61.60
62259;DHT22;48241;48.824;10.102;2022-09-03T03:34:10;17.20;62.00
62259;DHT22;48241;48.824;10.102;2022-09-03T03:36:36;17.10;62.10
62259;DHT22;48241;48.824;10.102;2022-09-03T03:39:02;17.10;62.50
62259;DHT22;48241;48.824;10.102;2022-09-03T03:41:34;17.00;62.20
62259;DHT22;48241;48.824;10.102;2022-09-03T03:44:05;16.90;63.20
62259;DHT22;48241;48.824;10.102;2022-09-03T03:46:36;16.90;63.50
62259;DHT22;48241;48.824;10.102;2022-09-03T03:49:01;16.80;63.70
62259;DHT22;48241;48.824;10.102;2022-09-03T03:51:28;17.00;63.40
62259;DHT22;48241;48.824;10.102;2022-09-03T03:53:55;16.70;64.20
62259;DHT22;48241;48.824;10.102;2022-09-03T03:56:22;16.50;65.60
62259;DHT22;48241;48.824;10.102;2022-09-03T03:58:48;16.50;65.10
62259;DHT22;48241;48.824;10.102;2022-09-03T04:01:16;16.40;65.60
62259;DHT22;48241;48.824;10.102;2022-09-03T04:03:42;16.40;65.80
62259;DHT22;48241;48.824;10.102;2022-09-03T04:06:09;16.50;65.50
62259;DHT22;48241;48.824;10.102;2022-09-03T04:08:37;16.50;65.30
62259;DHT22;48241;48.824;10.102;2022-09-03T04:11:05;16.60;65.60
62259;DHT22;48241;48.824;10.102;2022-09-03T04:13:32;16.60;65.20
62259;DHT22;48241;48.824;10.102;2022-09-03T04:16:15;16.50;65.70
62259;DHT22;48241;48.824;10.102;2022-09-03T04:18:41;16.20;66.70
62259;DHT22;48241;48.824;10.102;2022-09-03T04:21:09;16.20;66.90
62259;DHT22;48241;48.824;10.102;2022-09-03T04:23:37;16.20;67.80
62259;DHT22;48241;48.824;10.102;2022-09-03T04:26:03;16.20;67.30
62259;DHT22;48241;48.824;10.102;2022-09-03T04:28:29;16.10;68.10
62259;DHT22;48241;48.824;10.102;2022-09-03T04:31:06;16.00;68.60
62259;DHT22;48241;48.824;10.102;2022-09-03T04:33:32;16.00;68.90
62259;DHT22;48241;48.824;10.102;2022-09-03T04:36:19;15.70;70.00
62259;DHT22;48241;48.824;10.102;2022-09-03T04:38:46;15.60;71.10
62259;DHT22;48241;48.824;10.102;2022-09-03T04:41:15;15.70;70.90
62259;DHT22;48241;48.824;10.102;2022-09-03T04:43:41;15.90;70.90
62259;DHT22;48241;48.824;10.102;2022-09-03T04:46:09;15.90;69.90
62259;DHT22;48241;48.824;10.102;2022-09-03T04:48:36;15.80;71.10
62259;DHT22;48241;48.824;10.102;2022-09-03T04:51:13;16.00;69.90
62259;DHT22;48241;48.824;10.102;2022-09-03T04:53:44;15.90;70.70
62259;DHT22;48241;48.824;10.102;2022-09-03T04:56:16;16.00;70.10
62259;DHT22;48241;48.824;10.102;2022-09-03T04:58:42;15.90;70.80
62259;DHT22;48241;48.824;10.102;2022-09-03T05:01:16;15.60;71.60
62259;DHT22;48241;48.824;10.102;2022-09-03T05:03:43;15.60;72.40
62259;DHT22;48241;48.824;10.102;2022-09-03T05:06:08;15.50;72.80
62259;DHT22;48241;48.824;10.102;2022-09-03T05:08:35;15.40;73.70
62259;DHT22;48241;48.824;10.102;2022-09-03T05:11:03;15.40;73.50
62259;DHT22;48241;48.824;10.102;2022-09-03T05:13:29;15.20;74.50
62259;DHT22;48241;48.824;10.102;2022-09-03T05:16:03;15.40;74.30
62259;DHT22;48241;48.824;10.102;2022-09-03T05:18:29;15.50;74.00
62259;DHT22;48241;48.824;10.102;2022-09-03T05:21:02;15.50;73.90
62259;DHT22;48241;48.824;10.102;2022-09-03T05:23:29;15.70;73.00
62259;DHT22;48241;48.824;10.102;2022-09-03T05:26:00;15.60;73.00
62259;DHT22;48241;48.824;10.102;2022-09-03T05:28:28;15.40;74.80
62259;DHT22;48241;48.824;10.102;2022-09-03T05:30:59;15.70;73.70
62259;DHT22;48241;48.824;10.102;2022-09-03T05:33:25;15.50;74.10
62259;DHT22;48241;48.824;10.102;2022-09-03T05:35:52;15.50;73.80
62259;DHT22;48241;48.824;10.102;2022-09-03T05:38:18;15.60;74.10
62259;DHT22;48241;48.824;10.102;2022-09-03T05:40:44;15.70;74.40
62259;DHT22;48241;48.824;10.102;2022-09-03T05:43:09;15.80;73.30
62259;DHT22;48241;48.824;10.102;2022-09-03T05:45:35;16.00;72.90
62259;DHT22;48241;48.824;10.102;2022-09-03T05:48:01;16.30;72.20
62259;DHT22;48241;48.824;10.102;2022-09-03T05:50:27;16.40;70.20
62259;DHT22;48241;48.824;10.102;2022-09-03T05:52:53;16.50;70.80
62259;DHT22;48241;48.824;10.102;2022-09-03T05:55:18;16.30;70.90
62259;DHT22;48241;48.824;10.102;2022-09-03T05:57:44;16.10;72.70
62259;DHT22;48241;48.824;10.102;2022-09-03T06:00:10;16.00;73.20
62259;DHT22;48241;48.824;10.102;2022-09-03T06:02:36;16.40;72.20
62259;DHT22;48241;48.824;10.102;2022-09-03T06:05:02;16.50;71.20
62259;DHT22;48241;48.824;10.102;2022-09-03T06:07:28;16.70;70.90
62259;DHT22;48241;48.824;10.102;2022-09-03T06:09:53;16.60;70.90
62259;DHT22;48241;48.824;10.102;2022-09-03T06:12:19;16.30;73.60
62259;DHT22;48241;48.824;10.102;2022-09-03T06:14:45;16.10;73.50
62259;DHT22;48241;48.824;10.102;2022-09-03T06:17:10;16.00;74.40
62259;DHT22;48241;48.824;10.102;2022-09-03T06:19:37;16.00;73.90
62259;DHT22;48241;48.824;10.102;2022-09-03T06:22:03;15.80;75.50
62259;DHT22;48241;48.824;10.102;2022-09-03T06:24:28;15.70;75.70
62259;DHT22;48241;48.824;10.102;2022-09-03T06:37:43;16.10;75.00
62259;DHT22;48241;48.824;10.102;2022-09-03T10:48:15;29.50;44.70
62259;DHT22;48241;48.824;10.102;2022-09-03T10:50:51;30.00;45.50
62259;DHT22;48241;48.824;10.102;2022-09-03T10:56:22;29.90;46.30
62259;DHT22;48241;48.824;10.102;2022-09-03T11:04:49;29.30;46.00
62259;DHT22;48241;48.824;10.102;2022-09-03T11:07:21;29.00;46.50
62259;DHT22;48241;48.824;10.102;2022-09-03T11:09:59;28.80;46.50
62259;DHT22;48241;48.824;10.102;2022-09-03T11:15:08;27.80;50.40
62259;DHT22;48241;48.824;10.102;2022-09-03T11:17:46;28.00;48.80
62259;DHT22;48241;48.824;10.102;2022-09-03T11:20:20;27.80;48.30
62259;DHT22;48241;48.824;10.102;2022-09-03T11:22:48;27.50;48.40
62259;DHT22;48241;48.824;10.102;2022-09-03T11:25:16;26.50;51.20
62259;DHT22;48241;48.824;10.102;2022-09-03T11:28:04;26.10;51.70
62259;DHT22;48241;48.824;10.102;2022-09-03T11:30:39;25.70;53.60
62259;DHT22;48241;48.824;10.102;2022-09-03T11:33:16;25.80;54.60
62259;DHT22;48241;48.824;10.102;2022-09-03T11:35:42;26.20;53.70
62259;DHT22;48241;48.824;10.102;2022-09-03T11:41:11;26.50;60.00
62259;DHT22;48241;48.824;10.102;2022-09-03T11:43:43;26.60;61.10
62259;DHT22;48241;48.824;10.102;2022-09-03T11:46:28;26.60;59.10
62259;DHT22;48241;48.824;10.102;2022-09-03T11:49:11;27.00;59.70
62259;DHT22;48241;48.824;10.102;2022-09-03T11:51:39;27.30;54.30
62259;DHT22;48241;48.824;10.102;2022-09-03T11:56:38;27.70;57.80
62259;DHT22;48241;48.824;10.102;2022-09-03T11:59:25;27.80;57.70
62259;DHT22;48241;48.824;10.102;2022-09-03T12:02:31;28.10;53.10
62259;DHT22;48241;48.824;10.102;2022-09-03T12:07:52;29.20;50.40
62259;DHT22;48241;48.824;10.102;2022-09-03T12:10:48;29.80;46.70
62259;DHT22;48241;48.824;10.102;2022-09-03T12:19:26;30.70;45.80
62259;DHT22;48241;48.824;10.102;2022-09-03T12:21:54;30.70;45.50
62259;DHT22;48241;48.824;10.102;2022-09-03T12:24:21;30.60;44.60
62259;DHT22;48241;48.824;10.102;2022-09-03T12:26:47;30.50;47.50
62259;DHT22;48241;48.824;10.102;2022-09-03T12:29:25;30.40;48.70
62259;DHT22;48241;48.824;10.102;2022-09-03T12:31:51;29.80;50.90
62259;DHT22;48241;48.824;10.102;2022-09-03T12:34:19;29.60;51.50
62259;DHT22;48241;48.824;10.102;2022-09-03T12:36:50;29.30;54.30
62259;DHT22;48241;48.824;10.102;2022-09-03T12:42:01;28.60;56.10
62259;DHT22;48241;48.824;10.102;2022-09-03T12:47:02;28.00;57.40
62259;DHT22;48241;48.824;10.102;2022-09-03T12:49:37;27.70;58.90
62259;DHT22;48241;48.824;10.102;2022-09-03T12:52:24;27.10;60.80
62259;DHT22;48241;48.824;10.102;2022-09-03T12:55:04;26.70;62.50
62259;DHT22;48241;48.824;10.102;2022-09-03T12:57:40;26.20;65.10
62259;DHT22;48241;48.824;10.102;2022-09-03T13:00:09;25.80;68.10
62259;DHT22;48241;48.824;10.102;2022-09-03T13:03:06;25.40;70.00
62259;DHT22;48241;48.824;10.102;2022-09-03T13:05:53;25.10;72.00
62259;DHT22;48241;48.824;10.102;2022-09-03T13:08:26;24.90;71.60
62259;DHT22;48241;48.824;10.102;2022-09-03T13:10:57;24.20;65.20
62259;DHT22;48241;48.824;10.102;2022-09-03T13:13:26;22.00;84.60
62259;DHT22;48241;48.824;10.102;2022-09-03T13:16:33;20.60;88.40
62259;DHT22;48241;48.824;10.102;2022-09-03T13:19:23;19.70;88.40
62259;DHT22;48241;48.824;10.102;2022-09-03T13:22:02;18.80;87.30
62259;DHT22;48241;48.824;10.102;2022-09-03T13:31:18;17.50;88.80
62259;DHT22;48241;48.824;10.102;2022-09-03T13:33:44;17.20;91.80
62259;DHT22;48241;48.824;10.102;2022-09-03T13:36:19;17.00;93.20
62259;DHT22;48241;48.824;10.102;2022-09-03T13:44:44;16.70;96.00
62259;DHT22;48241;48.824;10.102;2022-09-03T13:47:41;16.30;96.50
62259;DHT22;48241;48.824;10.102;2022-09-03T13:50:30;16.10;97.60
62259;DHT22;48241;48.824;10.102;2022-09-03T13:53:13;16.00;97.70
62259;DHT22;48241;48.824;10.102;2022-09-03T13:55:55;16.00;98.70
62259;DHT22;48241;48.824;10.102;2022-09-03T14:01:11;16.60;96.90
62259;DHT22;48241;48.824;10.102;2022-09-03T14:03:51;16.90;95.90
62259;DHT22;48241;48.824;10.102;2022-09-03T14:06:42;16.90;96.20
62259;DHT22;48241;48.824;10.102;2022-09-03T14:12:28;16.90;96.30
62259;DHT22;48241;48.824;10.102;2022-09-03T14:15:02;17.10;96.00
62259;DHT22;48241;48.824;10.102;2022-09-03T14:17:45;17.40;96.00
62259;DHT22;48241;48.824;10.102;2022-09-03T14:23:02;17.60;95.60
62259;DHT22;48241;48.824;10.102;2022-09-03T14:25:29;17.70;95.30
62259;DHT22;48241;48.824;10.102;2022-09-03T14:28:25;17.90;94.00
62259;DHT22;48241;48.824;10.102;2022-09-03T14:31:15;17.80;94.10
62259;DHT22;48241;48.824;10.102;2022-09-03T14:34:17;17.70;94.80
62259;DHT22;48241;48.824;10.102;2022-09-03T14:39:55;17.90;95.60
62259;DHT22;48241;48.824;10.102;2022-09-03T14:51:21;17.80;96.10
62259;DHT22;48241;48.824;10.102;2022-09-03T15:01:46;18.10;97.80
62259;DHT22;48241;48.824;10.102;2022-09-03T15:13:19;19.80;94.00
62259;DHT22;48241;48.824;10.102;2022-09-03T15:15:53;20.20;93.10
62259;DHT22;48241;48.824;10.102;2022-09-03T15:21:52;20.60;92.40
62259;DHT22;48241;48.824;10.102;2022-09-03T15:27:22;21.10;90.50
62259;DHT22;48241;48.824;10.102;2022-09-03T15:40:47;21.30;87.90
62259;DHT22;48241;48.824;10.102;2022-09-03T15:43:22;21.60;88.20
62259;DHT22;48241;48.824;10.102;2022-09-03T15:46:04;21.60;86.40
62259;DHT22;48241;48.824;10.102;2022-09-03T15:49:00;21.70;86.10
62259;DHT22;48241;48.824;10.102;2022-09-03T15:51:34;21.80;84.80
62259;DHT22;48241;48.824;10.102;2022-09-03T15:54:14;21.90;83.90
62259;DHT22;48241;48.824;10.102;2022-09-03T15:57:02;21.70;86.00
62259;DHT22;48241;48.824;10.102;2022-09-03T16:02:31;21.40;84.10
62259;DHT22;48241;48.824;10.102;2022-09-03T16:12:44;20.00;91.60
62259;DHT22;48241;48.824;10.102;2022-09-03T16:15:16;19.80;92.40
62259;DHT22;48241;48.824;10.102;2022-09-03T16:23:51;19.70;94.50
62259;DHT22;48241;48.824;10.102;2022-09-03T16:26:39;19.70;94.70
62259;DHT22;48241;48.824;10.102;2022-09-03T16:29:16;19.60;95.20
62259;DHT22;48241;48.824;10.102;2022-09-03T16:35:25;20.00;94.60
62259;DHT22;48241;48.824;10.102;2022-09-03T16:48:20;20.40;92.20
62259;DHT22;48241;48.824;10.102;2022-09-03T16:53:52;20.50;92.30
62259;DHT22;48241;48.824;10.102;2022-09-03T16:56:59;20.40;92.00
62259;DHT22;48241;48.824;10.102;2022-09-03T17:05:07;20.00;93.20
62259;DHT22;48241;48.824;10.102;2022-09-03T17:07:55;19.80;93.40
62259;DHT22;48241;48.824;10.102;2022-09-03T17:36:26;17.60;98.60
62259;DHT22;48241;48.824;10.102;2022-09-03T17:39:19;17.70;98.50
62259;DHT22;48241;48.824;10.102;2022-09-03T17:42:27;17.70;97.70
62259;DHT22;48241;48.824;10.102;2022-09-03T17:50:20;17.20;99.90
62259;DHT22;48241;48.824;10.102;2022-09-03T17:53:16;17.20;99.40
62259;DHT22;48241;48.824;10.102;2022-09-03T17:56:00;17.20;99.20
62259;DHT22;48241;48.824;10.102;2022-09-03T18:01:18;17.20;99.30
62259;DHT22;48241;48.824;10.102;2022-09-03T18:03:54;17.10;99.70
62259;DHT22;48241;48.824;10.102;2022-09-03T18:09:05;17.10;99.10
62259;DHT22;48241;48.824;10.102;2022-09-03T18:11:40;17.30;98.30
62259;DHT22;48241;48.824;10.102;2022-09-03T18:14:27;17.20;98.20
62259;DHT22;48241;48.824;10.102;2022-09-03T18:17:04;17.20;98.20
62259;DHT22;48241;48.824;10.102;2022-09-03T18:19:49;17.20;98.50
62259;DHT22;48241;48.824;10.102;2022-09-03T18:23:06;17.00;99.60
62259;DHT22;48241;48.824;10.102;2022-09-03T18:26:00;17.00;99.40
62259;DHT22;48241;48.824;10.102;2022-09-03T18:28:52;16.80;99.90
62259;DHT22;48241;48.824;10.102;2022-09-03T18:31:36;16.70;99.90
62259;DHT22;48241;48.824;10.102;2022-09-03T18:34:31;16.40;99.90
62259;DHT22;48241;48.824;10.102;2022-09-03T18:37:22;16.30;99.90
62259;DHT22;48241;48.824;10.102;2022-09-03T18:40:10;16.10;99.90
62259;DHT22;48241;48.824;10.102;2022-09-03T18:46:02;16.30;99.90
62259;DHT22;48241;48.824;10.102;2022-09-03T19:00:35;16.10;99.90
62259;DHT22;48241;48.824;10.102;2022-09-03T19:03:43;16.00;99.90
62259;DHT22;48241;48.824;10.102;2022-09-03T19:07:07;16.10;99.90
62259;DHT22;48241;48.824;10.102;2022-09-03T19:10:12;16.10;99.90
62259;DHT22;48241;48.824;10.102;2022-09-03T19:19:17;16.50;99.90
62259;DHT22;48241;48.824;10.102;2022-09-03T19:22:08;16.50;99.90
62259;DHT22;48241;48.824;10.102;2022-09-03T19:25:02;16.50;99.90
62259;DHT22;48241;48.824;10.102;2022-09-03T19:28:02;16.60;99.90
62259;DHT22;48241;48.824;10.102;2022-09-03T19:34:18;16.30;99.90
62259;DHT22;48241;48.824;10.102;2022-09-03T19:46:31;16.40;99.90
62259;DHT22;48241;48.824;10.102;2022-09-03T19:54:58;16.50;99.90
62259;DHT22;48241;48.824;10.102;2022-09-03T19:57:46;16.50;99.90
62259;DHT22;48241;48.824;10.102;2022-09-03T20:00:32;16.40;99.90
62259;DHT22;48241;48.824;10.102;2022-09-03T20:03:17;16.30;99.90
62259;DHT22;48241;48.824;10.102;2022-09-03T20:06:02;16.30;99.90
62259;DHT22;48241;48.824;10.102;2022-09-03T20:08:48;16.20;99.90
62259;DHT22;48241;48.824;10.102;2022-09-03T20:11:36;16.00;99.90
62259;DHT22;48241;48.824;10.102;2022-09-03T20:14:10;15.90;99.90
62259;DHT22;48241;48.824;10.102;2022-09-03T20:17:12;15.70;99.90
62259;DHT22;48241;48.824;10.102;2022-09-03T20:22:55;15.80;99.90
62259;DHT22;48241;48.824;10.102;2022-09-03T20:25:55;15.70;99.90
62259;DHT22;48241;48.824;10.102;2022-09-03T20:36:27;16.10;99.90
62259;DHT22;48241;48.824;10.102;2022-09-03T20:44:47;16.20;99.90
62259;DHT22;48241;48.824;10.102;2022-09-03T20:47:32;16.20;99.90
62259;DHT22;48241;48.824;10.102;2022-09-03T20:53:12;16.60;99.90
62259;DHT22;48241;48.824;10.102;2022-09-03T20:55:42;16.70;99.90
62259;DHT22;48241;48.824;10.102;2022-09-03T21:01:16;16.70;99.90
62259;DHT22;48241;48.824;10.102;2022-09-03T21:06:47;16.70;99.90
62259;DHT22;48241;48.824;10.102;2022-09-03T21:14:45;17.30;99.20
62259;DHT22;48241;48.824;10.102;2022-09-03T21:20:38;17.00;99.90
62259;DHT22;48241;48.824;10.102;2022-09-03T21:23:23;16.90;99.90
62259;DHT22;48241;48.824;10.102;2022-09-03T21:26:05;16.70;99.90
62259;DHT22;48241;48.824;10.102;2022-09-03T21:28:40;16.60;99.90
62259;DHT22;48241;48.824;10.102;2022-09-03T21:31:33;16.60;99.90
62259;DHT22;48241;48.824;10.102;2022-09-03T21:36:42;16.60;99.90
62259;DHT22;48241;48.824;10.102;2022-09-03T21:39:24;16.60;99.90
62259;DHT22;48241;48.824;10.102;2022-09-03T21:47:12;16.40;99.90
62259;DHT22;48241;48.824;10.102;2022-09-03T21:49:57;16.30;99.90
62259;DHT22;48241;48.824;10.102;2022-09-03T21:58:02;16.60;99.90
62259;DHT22;48241;48.824;10.102;2022-09-03T22:00:31;16.60;99.90
62259;DHT22;48241;48.824;10.102;2022-09-03T22:02:58;16.40;99.90
62259;DHT22;48241;48.824;10.102;2022-09-03T22:05:34;16.50;99.90
62259;DHT22;48241;48.824;10.102;2022-09-03T22:08:15;16.40;99.90
62259;DHT22;48241;48.824;10.102;2022-09-03T22:13:48;16.70;99.90
62259;DHT22;48241;48.824;10.102;2022-09-03T22:19:14;17.00;99.90
62259;DHT22;48241;48.824;10.102;2022-09-03T22:21:53;17.20;99.90
62259;DHT22;48241;48.824;10.102;2022-09-03T22:24:28;17.30;99.90
62259;DHT22;48241;48.824;10.102;2022-09-03T22:27:04;17.40;99.60
62259;DHT22;48241;48.824;10.102;2022-09-03T22:29:53;17.40;99.90
62259;DHT22;48241;48.824;10.102;2022-09-03T22:32:46;17.10;99.90
62259;DHT22;48241;48.824;10.102;2022-09-03T22:43:42;17.20;99.90
62259;DHT22;48241;48.824;10.102;2022-09-03T22:46:16;17.40;99.90
62259;DHT22;48241;48.824;10.102;2022-09-03T22:51:27;17.60;99.90
62259;DHT22;48241;48.824;10.102;2022-09-03T22:56:44;17.60;99.90
62259;DHT22;48241;48.824;10.102;2022-09-03T22:59:24;17.70;99.90
62259;DHT22;48241;48.824;10.102;2022-09-03T23:02:09;17.30;99.90
62259;DHT22;48241;48.824;10.102;2022-09-03T23:10:09;16.90;99.90
62259;DHT22;48241;48.824;10.102;2022-09-03T23:12:43;16.90;99.90
62259;DHT22;48241;48.824;10.102;2022-09-03T23:15:15;16.90;99.90
62259;DHT22;48241;48.824;10.102;2022-09-03T23:17:49;16.70;99.90
62259;DHT22;48241;48.824;10.102;2022-09-03T23:20:22;16.90;99.90
62259;DHT22;48241;48.824;10.102;2022-09-03T23:23:12;17.00;99.90
62259;DHT22;48241;48.824;10.102;2022-09-03T23:25:43;16.90;99.90
62259;DHT22;48241;48.824;10.102;2022-09-03T23:28:27;17.10;99.90
62259;DHT22;48241;48.824;10.102;2022-09-03T23:31:03;17.20;99.90
62259;DHT22;48241;48.824;10.102;2022-09-03T23:33:31;17.30;99.90
62259;DHT22;48241;48.824;10.102;2022-09-03T23:36:03;17.20;99.90
62259;DHT22;48241;48.824;10.102;2022-09-03T23:38:39;17.50;99.90
62259;DHT22;48241;48.824;10.102;2022-09-03T23:41:16;17.50;99.90
62259;DHT22;48241;48.824;10.102;2022-09-03T23:43:59;17.70;99.30
62259;DHT22;48241;48.824;10.102;2022-09-03T23:46:49;17.70;99.00
62259;DHT22;48241;48.824;10.102;2022-09-03T23:52:35;17.70;99.30
62259;DHT22;48241;48.824;10.102;2022-09-03T23:57:58;17.50;98.60
